Time;durP1;ratioP1;P1;durP2;ratioP2;P2;SDS_P1;SDS_P2;PMS_P1;PMS_P2;Temp;Humidity;BMP_temperature;BMP_pressure;BME280_temperature;BME280_humidity;BME280_pressure;Samples;Min_cycle;Max_cycle;Signal;HPM_P1;HPM_P2
2021/04/15 00:01:50;;;;;;;6.93;4.15;;;;;;;;;;5093211;28;20461;-68
2021/04/15 00:04:17;;;;;;;7.85;4.20;;;;;;;;;;5093697;28;20024;-68
2021/04/15 00:06:43;;;;;;;8.88;4.30;;;;;;;;;;5093298;28;20083;-68
2021/04/15 00:09:11;;;;;;;7.28;4.32;;;;;;;;;;5093164;28;20028;-68
2021/04/15 00:11:37;;;;;;;8.05;4.18;;;;;;;;;;5093374;28;20149;-68
2021/04/15 00:14:04;;;;;;;7.03;3.78;;;;;;;;;;5093378;28;20039;-68
2021/04/15 00:16:31;;;;;;;7.25;4.55;;;;;;;;;;5092398;28;20031;-68
2021/04/15 00:18:58;;;;;;;6.00;3.35;;;;;;;;;;5093096;28;20510;-68
2021/04/15 00:21:24;;;;;;;7.07;3.85;;;;;;;;;;5093228;28;20365;-68
2021/04/15 00:23:50;;;;;;;7.88;4.47;;;;;;;;;;5093179;28;20020;-68
2021/04/15 00:26:18;;;;;;;7.55;4.43;;;;;;;;;;5093247;28;20016;-68
2021/04/15 00:28:44;;;;;;;6.65;3.75;;;;;;;;;;5093188;28;20498;-68
2021/04/15 00:31:10;;;;;;;10.93;5.22;;;;;;;;;;5091478;28;20031;-68
2021/04/15 00:33:37;;;;;;;14.55;6.75;;;;;;;;;;5093114;28;20024;-68
2021/04/15 00:36:04;;;;;;;12.80;6.70;;;;;;;;;;5092705;28;20024;-68
2021/04/15 00:38:30;;;;;;;11.57;5.45;;;;;;;;;;5092933;28;20028;-68
2021/04/15 00:40:57;;;;;;;15.82;8.40;;;;;;;;;;5091732;28;20555;-68
2021/04/15 00:43:26;;;;;;;14.32;7.10;;;;;;;;;;5092674;28;20027;-68
2021/04/15 00:45:52;;;;;;;10.27;5.13;;;;;;;;;;5093031;28;20077;-68
2021/04/15 00:48:27;;;;;;;10.35;5.53;;;;;;;;;;5093017;28;20032;-68
2021/04/15 00:50:55;;;;;;;8.57;4.97;;;;;;;;;;5092533;28;20013;-68
2021/04/15 00:53:28;;;;;;;9.63;5.30;;;;;;;;;;5092802;28;20020;-68
2021/04/15 00:55:54;;;;;;;9.40;5.40;;;;;;;;;;5092701;28;20020;-68
2021/04/15 00:58:21;;;;;;;10.20;5.07;;;;;;;;;;5092354;28;20020;-68
2021/04/15 01:00:48;;;;;;;10.40;5.35;;;;;;;;;;5091460;28;20035;-68
2021/04/15 01:03:14;;;;;;;8.80;4.68;;;;;;;;;;5091760;28;20341;-68
2021/04/15 01:05:44;;;;;;;7.80;4.25;;;;;;;;;;5092289;28;20056;-68
2021/04/15 01:08:10;;;;;;;8.23;3.85;;;;;;;;;;5092541;28;20044;-68
2021/04/15 01:10:38;;;;;;;7.53;4.07;;;;;;;;;;5092637;28;20020;-68
2021/04/15 01:13:17;;;;;;;8.57;4.10;;;;;;;;;;5092185;28;20020;-68
2021/04/15 01:15:43;;;;;;;10.80;5.00;;;;;;;;;;5092576;28;20024;-68
2021/04/15 01:18:20;;;;;;;8.45;4.78;;;;;;;;;;5092187;28;20100;-68
2021/04/15 01:21:04;;;;;;;8.02;4.43;;;;;;;;;;5092518;28;20514;-68
2021/04/15 01:23:33;;;;;;;9.45;4.22;;;;;;;;;;5092553;28;20024;-68
2021/04/15 01:26:26;;;;;;;10.63;5.38;;;;;;;;;;5092178;28;20384;-68
2021/04/15 01:28:55;;;;;;;9.57;5.20;;;;;;;;;;5070575;28;20040;-68
2021/04/15 01:31:26;;;;;;;7.53;4.20;;;;;;;;;;5096552;28;20028;-68
2021/04/15 01:33:57;;;;;;;7.85;4.00;;;;;;;;;;5096166;28;20018;-68
2021/04/15 01:36:26;;;;;;;7.25;3.45;;;;;;;;;;5096502;28;20024;-68
2021/04/15 01:38:56;;;;;;;6.35;3.55;;;;;;;;;;5096341;28;20031;-68
2021/04/15 01:41:29;;;;;;;9.60;4.57;;;;;;;;;;5095899;28;20026;-68
2021/04/15 01:43:56;;;;;;;7.82;4.00;;;;;;;;;;5096285;28;20035;-68
2021/04/15 01:46:25;;;;;;;7.85;3.97;;;;;;;;;;5095906;28;20492;-68
2021/04/15 01:48:52;;;;;;;6.90;4.22;;;;;;;;;;5094999;28;20403;-68
2021/04/15 01:51:19;;;;;;;6.43;3.50;;;;;;;;;;5096150;28;20076;-68
2021/04/15 01:53:45;;;;;;;7.00;3.65;;;;;;;;;;5095647;28;20028;-68
2021/04/15 01:56:16;;;;;;;6.57;3.55;;;;;;;;;;5096008;28;20039;-68
2021/04/15 01:58:45;;;;;;;6.80;3.90;;;;;;;;;;5095982;28;20016;-68
2021/04/15 02:01:14;;;;;;;8.45;4.25;;;;;;;;;;5095498;28;20032;-68
2021/04/15 02:03:41;;;;;;;7.28;4.30;;;;;;;;;;5095951;28;20028;-68
2021/04/15 02:06:21;;;;;;;6.85;4.10;;;;;;;;;;5095958;28;20085;-68
2021/04/15 02:08:49;;;;;;;7.00;4.18;;;;;;;;;;5095605;28;20032;-68
2021/04/15 02:11:19;;;;;;;7.28;3.60;;;;;;;;;;5096030;28;20369;-67
2021/04/15 02:13:47;;;;;;;8.38;4.40;;;;;;;;;;5095682;28;20057;-68
2021/04/15 02:16:16;;;;;;;6.57;3.80;;;;;;;;;;5095137;28;20472;-68
2021/04/15 02:18:48;;;;;;;5.60;3.22;;;;;;;;;;5095580;28;20024;-68
2021/04/15 02:21:33;;;;;;;8.32;4.22;;;;;;;;;;5095557;28;20024;-69
2021/04/15 02:24:05;;;;;;;7.50;4.20;;;;;;;;;;5095572;28;20028;-68
2021/04/15 02:26:34;;;;;;;7.30;4.07;;;;;;;;;;5095609;28;20477;-68
2021/04/15 02:29:04;;;;;;;7.60;4.03;;;;;;;;;;5095251;28;20465;-68
2021/04/15 02:31:50;;;;;;;7.43;4.20;;;;;;;;;;5095746;28;20027;-68
2021/04/15 02:34:22;;;;;;;8.43;4.25;;;;;;;;;;5095254;28;20491;-67
2021/04/15 02:36:59;;;;;;;8.38;4.40;;;;;;;;;;5094835;28;20016;-68
2021/04/15 02:39:25;;;;;;;7.78;4.15;;;;;;;;;;5094754;28;20031;-68
2021/04/15 02:41:52;;;;;;;7.97;4.60;;;;;;;;;;5095096;28;20095;-68
2021/04/15 02:44:24;;;;;;;8.45;4.47;;;;;;;;;;5094704;28;20027;-68
2021/04/15 02:46:54;;;;;;;7.40;4.20;;;;;;;;;;5095120;28;20031;-68
2021/04/15 02:49:22;;;;;;;7.63;4.38;;;;;;;;;;5095293;28;20035;-68
2021/04/15 02:52:00;;;;;;;7.53;4.40;;;;;;;;;;5093429;28;20027;-68
2021/04/15 02:54:30;;;;;;;7.70;4.13;;;;;;;;;;5095075;28;20506;-68
2021/04/15 02:57:05;;;;;;;7.03;4.13;;;;;;;;;;5094562;28;20028;-68
2021/04/15 02:59:35;;;;;;;8.63;4.40;;;;;;;;;;5094872;28;20545;-68
2021/04/15 03:02:05;;;;;;;8.15;4.10;;;;;;;;;;5094784;28;20020;-68
2021/04/15 03:04:32;;;;;;;9.68;4.55;;;;;;;;;;5094384;28;20028;-68
2021/04/15 03:06:59;;;;;;;8.20;4.40;;;;;;;;;;5094507;28;20044;-68
2021/04/15 03:09:26;;;;;;;7.35;3.95;;;;;;;;;;5094869;28;20032;-68
2021/04/15 03:12:00;;;;;;;8.82;4.93;;;;;;;;;;5094420;28;20024;-68
2021/04/15 03:14:28;;;;;;;8.52;4.18;;;;;;;;;;5094570;28;20426;-68
2021/04/15 03:16:57;;;;;;;8.73;4.55;;;;;;;;;;5093185;28;20484;-68
2021/04/15 03:19:30;;;;;;;6.70;4.05;;;;;;;;;;5094157;28;20032;-68
2021/04/15 03:21:59;;;;;;;8.18;4.50;;;;;;;;;;5094424;28;20020;-68
2021/04/15 03:24:36;;;;;;;7.90;4.53;;;;;;;;;;5094405;28;20035;-68
2021/04/15 03:27:06;;;;;;;7.28;4.75;;;;;;;;;;5093760;28;20061;-68
2021/04/15 03:29:56;;;;;;;8.68;4.70;;;;;;;;;;5094742;28;20016;-68
2021/04/15 03:32:22;;;;;;;7.97;4.25;;;;;;;;;;5093822;28;20036;-68
2021/04/15 03:34:56;;;;;;;9.10;5.10;;;;;;;;;;5094162;28;20091;-68
2021/04/15 03:37:24;;;;;;;10.20;5.07;;;;;;;;;;5094002;28;20032;-68
2021/04/15 03:39:52;;;;;;;7.97;4.38;;;;;;;;;;5093544;28;20047;-68
2021/04/15 03:42:37;;;;;;;11.10;4.88;;;;;;;;;;5094287;28;20146;-68
2021/04/15 03:45:07;;;;;;;7.68;4.28;;;;;;;;;;5094230;28;20364;-68
2021/04/15 03:47:38;;;;;;;6.88;4.38;;;;;;;;;;5093694;28;20035;-68
2021/04/15 03:50:10;;;;;;;10.52;5.10;;;;;;;;;;5094078;28;20024;-68
2021/04/15 03:52:40;;;;;;;10.85;5.05;;;;;;;;;;5093088;28;20030;-68
2021/04/15 03:55:12;;;;;;;9.60;5.03;;;;;;;;;;5093359;28;20058;-68
2021/04/15 03:57:40;;;;;;;9.27;4.60;;;;;;;;;;5093740;28;20044;-68
2021/04/15 04:00:07;;;;;;;7.82;4.13;;;;;;;;;;5093162;28;20028;-68
2021/04/15 04:02:35;;;;;;;6.35;3.80;;;;;;;;;;5093530;28;20016;-68
2021/04/15 04:05:08;;;;;;;8.52;4.28;;;;;;;;;;5093562;28;20051;-68
2021/04/15 04:07:38;;;;;;;6.82;4.10;;;;;;;;;;5092602;28;20047;-68
2021/04/15 04:10:07;;;;;;;7.32;4.22;;;;;;;;;;5093570;28;20020;-68
2021/04/15 04:12:36;;;;;;;9.20;4.97;;;;;;;;;;5093559;28;20048;-68
2021/04/15 04:15:07;;;;;;;7.90;4.63;;;;;;;;;;5092894;28;20020;-68
2021/04/15 04:17:54;;;;;;;8.57;5.18;;;;;;;;;;5093355;28;20098;-68
2021/04/15 04:20:20;;;;;;;9.02;4.60;;;;;;;;;;5093309;28;20028;-68
2021/04/15 04:22:56;;;;;;;10.18;5.50;;;;;;;;;;5092867;28;20384;-68
2021/04/15 04:25:30;;;;;;;10.30;5.25;;;;;;;;;;5093193;28;20077;-68
2021/04/15 04:28:03;;;;;;;10.00;6.07;;;;;;;;;;5093154;28;20085;-68
2021/04/15 04:30:33;;;;;;;9.52;5.25;;;;;;;;;;5093360;28;20476;-69
2021/04/15 04:33:02;;;;;;;10.85;5.65;;;;;;;;;;5093232;28;20086;-68
2021/04/15 04:35:34;;;;;;;9.55;6.25;;;;;;;;;;5092698;28;20103;-68
2021/04/15 04:38:03;;;;;;;10.43;5.72;;;;;;;;;;5091800;28;20103;-68
2021/04/15 04:40:33;;;;;;;8.82;5.00;;;;;;;;;;5092985;28;20024;-68
2021/04/15 04:43:18;;;;;;;11.23;6.43;;;;;;;;;;5092547;28;20028;-68
2021/04/15 04:45:44;;;;;;;13.65;6.85;;;;;;;;;;5092897;28;20107;-68
2021/04/15 04:48:18;;;;;;;11.10;6.50;;;;;;;;;;5091544;28;20395;-68
2021/04/15 04:50:53;;;;;;;14.95;7.93;;;;;;;;;;5092702;28;20357;-67
2021/04/15 04:53:27;;;;;;;14.23;6.93;;;;;;;;;;5092828;28;20055;-68
2021/04/15 04:56:05;;;;;;;11.07;5.47;;;;;;;;;;5092775;28;20026;-68
2021/04/15 04:58:31;;;;;;;11.55;5.97;;;;;;;;;;5092430;28;20095;-68
2021/04/15 05:00:58;;;;;;;11.50;6.15;;;;;;;;;;5092729;28;20074;-71
2021/04/15 05:03:26;;;;;;;11.43;6.07;;;;;;;;;;5092103;28;20047;-69
2021/04/15 05:06:02;;;;;;;11.23;6.18;;;;;;;;;;5090312;28;20726;-68
2021/04/15 05:08:31;;;;;;;11.07;5.70;;;;;;;;;;5100001;28;20107;-70
2021/04/15 05:10:58;;;;;;;11.88;6.18;;;;;;;;;;5091836;28;20028;-70
2021/04/15 05:13:26;;;;;;;13.98;5.68;;;;;;;;;;5100348;28;20019;-68
2021/04/15 05:15:53;;;;;;;9.63;5.13;;;;;;;;;;5097678;28;20016;-70
2021/04/15 05:18:21;;;;;;;12.32;5.60;;;;;;;;;;5091955;28;20028;-68
2021/04/15 05:20:47;;;;;;;10.65;5.50;;;;;;;;;;5092390;28;20024;-69
2021/04/15 05:23:19;;;;;;;9.77;5.30;;;;;;;;;;5091066;28;20043;-67
2021/04/15 05:26:04;;;;;;;9.82;5.45;;;;;;;;;;5091558;28;20020;-67
2021/04/15 05:28:30;;;;;;;10.00;5.25;;;;;;;;;;5094080;28;20115;-67
2021/04/15 05:30:57;;;;;;;9.40;5.00;;;;;;;;;;5088016;28;20024;-66
2021/04/15 05:33:26;;;;;;;8.57;4.57;;;;;;;;;;5088367;28;20021;-66
2021/04/15 05:36:10;;;;;;;8.63;4.40;;;;;;;;;;5091155;28;20491;-66
2021/04/15 05:38:42;;;;;;;8.60;4.70;;;;;;;;;;5090834;28;20043;-66
2021/04/15 05:41:10;;;;;;;8.20;4.63;;;;;;;;;;5091374;28;20020;-67
2021/04/15 05:43:41;;;;;;;8.00;3.97;;;;;;;;;;5091994;28;20028;-66
2021/04/15 05:46:12;;;;;;;7.85;4.10;;;;;;;;;;5090049;28;20016;-68
2021/04/15 05:48:39;;;;;;;9.00;4.95;;;;;;;;;;5091583;28;20035;-68
2021/04/15 05:51:08;;;;;;;7.90;5.03;;;;;;;;;;5090971;28;20016;-69
2021/04/15 05:53:54;;;;;;;10.15;5.13;;;;;;;;;;5089311;28;20384;-68
2021/04/15 05:56:24;;;;;;;8.13;4.18;;;;;;;;;;5091786;28;20525;-67
2021/04/15 05:59:09;;;;;;;5.85;3.35;;;;;;;;;;5091715;28;20541;-67
2021/04/15 06:02:01;;;;;;;7.47;4.40;;;;;;;;;;5091481;28;20024;-68
2021/04/15 06:04:27;;;;;;;7.38;3.60;;;;;;;;;;5067976;28;20032;-67
2021/04/15 06:06:54;;;;;;;7.47;3.60;;;;;;;;;;5091103;28;20048;-65
2021/04/15 06:09:20;;;;;;;9.20;4.80;;;;;;;;;;5091970;28;20028;-66
2021/04/15 06:11:51;;;;;;;8.95;4.88;;;;;;;;;;5092245;28;20016;-65
2021/04/15 06:14:18;;;;;;;8.25;4.93;;;;;;;;;;5091465;28;20028;-66
2021/04/15 06:16:50;;;;;;;9.82;5.60;;;;;;;;;;5093785;28;20020;-65
2021/04/15 06:19:18;;;;;;;10.95;6.50;;;;;;;;;;5094788;28;20476;-67
2021/04/15 06:21:46;;;;;;;10.65;6.07;;;;;;;;;;5094969;28;20473;-66
2021/04/15 06:24:14;;;;;;;24.77;13.50;;;;;;;;;;5093928;28;20043;-67
2021/04/15 06:26:52;;;;;;;18.50;9.60;;;;;;;;;;5094889;28;20376;-66
2021/04/15 06:29:21;;;;;;;13.32;7.03;;;;;;;;;;5094590;28;20020;-66
2021/04/15 06:31:51;;;;;;;15.27;8.30;;;;;;;;;;5093517;28;20020;-68
2021/04/15 06:34:18;;;;;;;15.75;9.40;;;;;;;;;;5095176;28;20024;-67
2021/04/15 06:36:47;;;;;;;12.98;7.22;;;;;;;;;;5094450;28;20024;-67
2021/04/15 06:39:34;;;;;;;10.75;6.38;;;;;;;;;;5094801;28;20028;-67
2021/04/15 06:42:19;;;;;;;12.25;6.03;;;;;;;;;;5094274;28;20816;-68
2021/04/15 06:44:51;;;;;;;11.55;6.05;;;;;;;;;;5093698;28;20365;-68
2021/04/15 06:47:36;;;;;;;9.30;5.30;;;;;;;;;;5094730;28;20189;-68
2021/04/15 06:50:11;;;;;;;7.63;4.05;;;;;;;;;;5093572;28;20484;-70
2021/04/15 06:52:56;;;;;;;7.53;4.18;;;;;;;;;;5092993;28;20059;-67
2021/04/15 06:55:25;;;;;;;10.52;5.10;;;;;;;;;;5092689;28;20035;-68
2021/04/15 06:57:54;;;;;;;10.05;5.05;;;;;;;;;;5094020;28;20012;-68
2021/04/15 07:00:27;;;;;;;11.60;4.85;;;;;;;;;;5094538;28;20365;-67
2021/04/15 07:03:02;;;;;;;10.98;5.38;;;;;;;;;;5094269;28;20024;-67
2021/04/15 07:05:30;;;;;;;7.65;4.07;;;;;;;;;;5094511;28;20085;-67
2021/04/15 07:08:16;;;;;;;8.13;4.97;;;;;;;;;;5094394;28;20071;-67
2021/04/15 07:11:00;;;;;;;7.95;4.03;;;;;;;;;;5083195;28;20047;-65
2021/04/15 07:13:29;;;;;;;8.38;4.18;;;;;;;;;;5094576;28;20020;-67
2021/04/15 07:16:04;;;;;;;5.70;3.17;;;;;;;;;;5094060;28;20058;-68
2021/04/15 07:19:09;;;;;;;9.07;3.53;;;;;;;;;;5092656;28;20047;-68
2021/04/15 07:22:02;;;;;;;6.00;3.33;;;;;;;;;;5029733;28;20030;-68
2021/04/15 07:24:28;;;;;;;11.73;5.75;;;;;;;;;;5031145;28;20075;-69
2021/04/15 07:27:01;;;;;;;16.58;7.30;;;;;;;;;;5072285;28;20077;-68
2021/04/15 07:29:33;;;;;;;10.52;5.15;;;;;;;;;;5093626;28;20391;-68
2021/04/15 07:32:00;;;;;;;8.43;4.57;;;;;;;;;;5090767;28;20469;-66
2021/04/15 07:34:29;;;;;;;7.55;3.50;;;;;;;;;;5091964;28;20054;-67
2021/04/15 07:37:14;;;;;;;7.95;4.35;;;;;;;;;;5092160;28;20036;-66
2021/04/15 07:39:48;;;;;;;12.73;5.32;;;;;;;;;;5092939;28;20395;-68
2021/04/15 07:42:14;;;;;;;9.52;4.95;;;;;;;;;;5093187;28;20115;-67
2021/04/15 07:44:44;;;;;;;7.18;3.92;;;;;;;;;;5093172;28;20023;-67
2021/04/15 07:47:36;;;;;;;6.13;3.10;;;;;;;;;;5092546;28;20028;-67
2021/04/15 07:50:23;;;;;;;6.93;3.92;;;;;;;;;;5090421;28;20455;-67
2021/04/15 07:53:08;;;;;;;8.00;3.80;;;;;;;;;;5078881;28;20071;-67
2021/04/15 07:55:37;;;;;;;8.13;4.03;;;;;;;;;;5092417;28;20035;-67
2021/04/15 07:58:22;;;;;;;5.50;2.78;;;;;;;;;;5092814;28;20023;-68
2021/04/15 08:01:02;;;;;;;7.13;3.40;;;;;;;;;;5092794;28;20479;-68
2021/04/15 08:03:47;;;;;;;7.35;3.70;;;;;;;;;;5091925;28;20020;-66
2021/04/15 08:06:18;;;;;;;11.40;5.38;;;;;;;;;;5092610;28;20720;-65
2021/04/15 08:08:56;;;;;;;9.07;4.40;;;;;;;;;;5091173;28;20613;-66
2021/04/15 08:11:31;;;;;;;13.88;4.43;;;;;;;;;;5092973;28;20061;-65
2021/04/15 08:16:20;;;;;;;5.60;3.20;;;;;;;;;;5049241;27;20390;-66
2021/04/15 08:18:49;;;;;;;9.00;4.60;;;;;;;;;;5049462;28;20511;-66
2021/04/15 08:21:34;;;;;;;5.97;3.17;;;;;;;;;;5048774;28;20025;-66
2021/04/15 08:24:03;;;;;;;7.22;3.65;;;;;;;;;;5048974;28;20547;-66
2021/04/15 08:26:52;;;;;;;6.47;3.63;;;;;;;;;;5048897;28;20021;-66
2021/04/15 08:29:25;;;;;;;4.90;2.65;;;;;;;;;;5043799;28;20120;-65
2021/04/15 08:32:10;;;;;;;5.40;2.92;;;;;;;;;;5041200;28;20564;-66
2021/04/15 08:34:36;;;;;;;6.97;3.22;;;;;;;;;;5048166;28;20037;-65
2021/04/15 08:37:10;;;;;;;7.35;3.97;;;;;;;;;;5048402;28;20021;-64
2021/04/15 08:39:42;;;;;;;6.15;3.30;;;;;;;;;;5049216;28;20497;-65
2021/04/15 08:42:12;;;;;;;6.55;3.88;;;;;;;;;;5048384;28;20470;-65
2021/04/15 08:44:42;;;;;;;4.35;2.58;;;;;;;;;;5045516;28;20021;-65
2021/04/15 08:49:03;;;;;;;4.65;2.60;;;;;;;;;;5107797;27;20147;-63
2021/04/15 08:51:48;;;;;;;8.52;3.13;;;;;;;;;;5108572;28;20027;-64
2021/04/15 08:54:20;;;;;;;8.27;3.13;;;;;;;;;;5100026;28;20103;-64
2021/04/15 08:58:46;;;;;;;8.00;3.42;;;;;;;;;;5048766;28;20715;-66
2021/04/15 09:01:27;;;;;;;6.50;3.72;;;;;;;;;;5046145;28;20035;-66
2021/04/15 09:03:56;;;;;;;5.57;2.80;;;;;;;;;;5047783;28;20041;-65
2021/04/15 09:09:20;;;;;;;7.72;4.00;;;;;;;;;;5049382;28;20389;-66
2021/04/15 09:13:49;;;;;;;6.95;2.72;;;;;;;;;;5048825;28;20451;-67
2021/04/15 09:16:23;;;;;;;6.35;3.22;;;;;;;;;;5047868;28;20470;-66
2021/04/15 09:20:30;;;;;;;5.78;3.50;;;;;;;;;;5109252;27;20994;-68
2021/04/15 09:23:18;;;;;;;6.65;3.13;;;;;;;;;;5111452;28;20031;-65
2021/04/15 09:26:04;;;;;;;4.75;2.13;;;;;;;;;;5110179;28;20034;-67
2021/04/15 09:31:10;;;;;;;10.07;3.88;;;;;;;;;;5112900;27;20560;-65
2021/04/15 09:34:00;;;;;;;9.38;4.30;;;;;;;;;;5109386;28;20464;-66
2021/04/15 09:36:49;;;;;;;9.65;4.85;;;;;;;;;;5109894;27;20377;-67
2021/04/15 09:39:25;;;;;;;10.35;4.60;;;;;;;;;;5114024;28;20483;-64
2021/04/15 09:41:53;;;;;;;5.00;2.95;;;;;;;;;;5124459;28;20080;-65
2021/04/15 09:45:46;;;;;;;8.68;4.75;;;;;;;;;;5068053;28;20894;-66
2021/04/15 09:48:19;;;;;;;6.60;3.60;;;;;;;;;;5047828;28;20053;-68
2021/04/15 09:50:53;;;;;;;8.93;4.17;;;;;;;;;;5061214;28;20033;-65
2021/04/15 09:53:25;;;;;;;7.55;4.00;;;;;;;;;;5051134;28;20273;-66
2021/04/15 09:56:12;;;;;;;4.43;2.20;;;;;;;;;;5045596;28;20092;-66
2021/04/15 10:03:37;;;;;;;6.95;3.50;;;;;;;;;;5108488;27;20442;-67
2021/04/15 10:06:24;;;;;;;7.93;3.50;;;;;;;;;;5107838;27;20473;-67
2021/04/15 10:09:42;;;;;;;5.85;2.55;;;;;;;;;;5107993;27;20366;-67
2021/04/15 10:13:12;;;;;;;7.38;3.28;;;;;;;;;;5107649;27;20446;-66
2021/04/15 10:15:38;;;;;;;5.13;2.83;;;;;;;;;;5108350;28;20032;-66
2021/04/15 10:25:07;;;;;;;7.13;3.80;;;;;;;;;;5127735;27;20715;-66
2021/04/15 10:27:52;;;;;;;8.30;3.95;;;;;;;;;;5098406;28;20043;-68
2021/04/15 10:32:40;;;;;;;12.23;5.85;;;;;;;;;;5068778;28;20391;-68
2021/04/15 10:35:15;;;;;;;12.68;5.75;;;;;;;;;;5068259;28;20553;-65
2021/04/15 10:38:01;;;;;;;15.02;6.53;;;;;;;;;;5069284;28;20100;-66
2021/04/15 10:41:23;;;;;;;7.50;3.60;;;;;;;;;;5171456;27;20342;-65
2021/04/15 10:43:58;;;;;;;14.52;5.35;;;;;;;;;;5151183;27;20027;-64
2021/04/15 10:46:29;;;;;;;12.57;5.97;;;;;;;;;;5131312;27;20023;-66
2021/04/15 10:48:59;;;;;;;15.30;6.63;;;;;;;;;;5131029;27;20023;-66
2021/04/15 10:53:02;;;;;;;6.45;3.80;;;;;;;;;;5067721;28;20387;-68
2021/04/15 10:57:29;;;;;;;6.15;3.22;;;;;;;;;;5107789;27;20388;-65
2021/04/15 10:59:55;;;;;;;5.90;2.92;;;;;;;;;;5089777;28;20020;-65
2021/04/15 11:02:22;;;;;;;5.20;2.55;;;;;;;;;;5107623;28;20384;-65
2021/04/15 11:04:52;;;;;;;4.30;2.90;;;;;;;;;;5107510;28;20031;-66
2021/04/15 11:08:32;;;;;;;11.55;6.07;;;;;;;;;;5115947;27;20444;-65
2021/04/15 11:12:02;;;;;;;8.68;3.97;;;;;;;;;;5109631;27;20423;-64
2021/04/15 11:14:35;;;;;;;6.60;3.92;;;;;;;;;;5108780;28;20028;-64
2021/04/15 11:17:01;;;;;;;;;;;;;;;;;;5107131;28;20064;-65
2021/04/15 11:19:28;;;;;;;7.13;3.35;;;;;;;;;;5109313;28;19940;-65
2021/04/15 11:21:57;;;;;;;10.75;5.13;;;;;;;;;;5090909;28;20077;-65
2021/04/15 11:24:28;;;;;;;7.22;3.40;;;;;;;;;;5095928;28;20024;-65
2021/04/15 11:26:59;;;;;;;4.70;2.42;;;;;;;;;;5107984;28;20028;-64
2021/04/15 11:29:41;;;;;;;5.68;3.70;;;;;;;;;;5099932;28;20085;-65
2021/04/15 11:32:31;;;;;;;8.30;3.55;;;;;;;;;;5107111;28;20039;-64
2021/04/15 11:35:05;;;;;;;6.10;3.05;;;;;;;;;;5100045;28;20097;-64
2021/04/15 11:39:12;;;;;;;5.45;2.80;;;;;;;;;;5129505;27;20167;-65
2021/04/15 11:42:52;;;;;;;6.40;2.80;;;;;;;;;;5107864;27;20445;-64
2021/04/15 11:45:27;;;;;;;7.22;3.83;;;;;;;;;;5106858;28;20103;-66
2021/04/15 11:48:08;;;;;;;5.35;3.10;;;;;;;;;;5106777;28;20054;-64
2021/04/15 11:50:35;;;;;;;8.13;4.00;;;;;;;;;;5108251;28;20111;-65
2021/04/15 11:54:35;;;;;;;6.57;3.63;;;;;;;;;;5119245;27;20123;-65
2021/04/15 11:57:16;;;;;;;9.40;4.07;;;;;;;;;;5107849;28;20062;-65
2021/04/15 11:59:42;;;;;;;6.70;3.53;;;;;;;;;;5107626;28;20402;-64
2021/04/15 12:02:14;;;;;;;8.48;4.70;;;;;;;;;;5108385;28;20020;-65
2021/04/15 12:04:40;;;;;;;9.65;4.70;;;;;;;;;;5090064;28;20024;-65
2021/04/15 12:07:13;;;;;;;10.63;4.93;;;;;;;;;;5108756;28;20035;-65
2021/04/15 12:09:39;;;;;;;6.13;3.40;;;;;;;;;;5110151;28;20024;-65
2021/04/15 12:12:09;;;;;;;6.85;3.45;;;;;;;;;;5107736;28;20099;-65
2021/04/15 12:14:36;;;;;;;6.35;3.40;;;;;;;;;;5104244;28;20020;-64
2021/04/15 12:17:02;;;;;;;9.77;3.38;;;;;;;;;;5089853;28;20379;-64
2021/04/15 12:19:33;;;;;;;13.65;4.70;;;;;;;;;;5089242;28;20028;-65
2021/04/15 12:22:01;;;;;;;6.78;2.70;;;;;;;;;;5089795;28;20454;-65
2021/04/15 12:24:44;;;;;;;7.45;3.75;;;;;;;;;;5089478;28;20043;-65
2021/04/15 12:27:16;;;;;;;5.82;3.05;;;;;;;;;;5089499;28;20103;-65
2021/04/15 12:30:03;;;;;;;8.93;4.00;;;;;;;;;;5089411;28;20047;-67
2021/04/15 12:32:52;;;;;;;9.25;4.75;;;;;;;;;;5071016;28;20032;-65
2021/04/15 12:35:18;;;;;;;7.32;4.45;;;;;;;;;;5058176;28;20044;-65
2021/04/15 12:37:56;;;;;;;6.75;4.35;;;;;;;;;;5089293;28;20024;-65
2021/04/15 12:43:53;;;;;;;9.68;5.38;;;;;;;;;;5069772;28;20380;-66
2021/04/15 12:47:26;;;;;;;8.95;4.60;;;;;;;;;;5110111;27;20381;-64
2021/04/15 12:49:52;;;;;;;10.65;4.80;;;;;;;;;;5109055;28;20027;-64
2021/04/15 12:54:20;;;;;;;10.55;5.32;;;;;;;;;;5110247;27;20361;-64
2021/04/15 13:00:09;;;;;;;10.40;5.00;;;;;;;;;;5110341;27;20438;-64
2021/04/15 13:02:36;;;;;;;8.25;3.90;;;;;;;;;;5109697;28;20036;-64
2021/04/15 13:05:06;;;;;;;10.13;5.70;;;;;;;;;;5110329;28;20033;-64
2021/04/15 13:07:35;;;;;;;9.25;5.13;;;;;;;;;;5108923;28;20115;-64
2021/04/15 13:10:13;;;;;;;8.60;4.72;;;;;;;;;;5109896;28;20372;-65
2021/04/15 13:13:58;;;;;;;10.32;5.35;;;;;;;;;;5110239;27;20446;-64
2021/04/15 13:18:43;;;;;;;12.55;5.85;;;;;;;;;;5110172;27;20162;-64
2021/04/15 13:21:24;;;;;;;13.02;5.40;;;;;;;;;;5110316;28;20103;-64
2021/04/15 13:23:50;;;;;;;8.02;4.75;;;;;;;;;;5109893;28;20037;-65
2021/04/15 13:26:17;;;;;;;7.97;4.82;;;;;;;;;;5110093;28;20020;-65
2021/04/15 13:28:43;;;;;;;7.22;4.10;;;;;;;;;;5110270;28;20008;-65
2021/04/15 13:31:09;;;;;;;5.45;3.33;;;;;;;;;;5109829;28;20469;-65
2021/04/15 13:33:36;;;;;;;7.53;3.70;;;;;;;;;;5108810;28;20040;-65
2021/04/15 13:36:02;;;;;;;7.35;3.88;;;;;;;;;;5109785;28;20023;-65
2021/04/15 13:38:28;;;;;;;9.57;5.25;;;;;;;;;;5109552;28;20103;-65
2021/04/15 13:40:55;;;;;;;10.50;5.55;;;;;;;;;;5109956;28;20016;-64
2021/04/15 13:43:34;;;;;;;11.05;5.53;;;;;;;;;;5108591;28;20024;-65
2021/04/15 13:46:18;;;;;;;15.50;5.57;;;;;;;;;;5109497;28;20024;-64
2021/04/15 13:48:46;;;;;;;9.45;4.63;;;;;;;;;;5109381;28;20024;-63
2021/04/15 13:51:15;;;;;;;7.57;3.88;;;;;;;;;;5108261;28;20034;-63
2021/04/15 13:53:46;;;;;;;4.97;3.22;;;;;;;;;;5108375;28;20444;-64
2021/04/15 13:56:26;;;;;;;12.52;4.93;;;;;;;;;;5109578;28;20040;-64
2021/04/15 13:58:52;;;;;;;12.48;5.88;;;;;;;;;;5109230;28;20069;-64
2021/04/15 14:01:33;;;;;;;11.50;5.75;;;;;;;;;;5108381;28;20081;-64
2021/04/15 14:04:00;;;;;;;8.05;4.72;;;;;;;;;;5109484;28;20046;-64
2021/04/15 14:06:27;;;;;;;10.95;4.72;;;;;;;;;;5109114;28;20024;-64
2021/04/15 14:10:39;;;;;;;6.95;4.15;;;;;;;;;;5110642;27;20381;-64
2021/04/15 14:13:17;;;;;;;7.55;4.25;;;;;;;;;;5108646;28;20039;-64
2021/04/15 14:15:49;;;;;;;8.88;5.43;;;;;;;;;;5108956;28;20084;-65
2021/04/15 14:18:22;;;;;;;9.77;4.82;;;;;;;;;;5110041;28;20091;-64
2021/04/15 14:21:11;;;;;;;12.32;6.95;;;;;;;;;;5109674;28;20075;-64
2021/04/15 14:23:49;;;;;;;18.65;9.95;;;;;;;;;;5108884;28;20027;-65
2021/04/15 14:26:22;;;;;;;9.75;5.20;;;;;;;;;;5108438;28;20468;-66
2021/04/15 14:28:50;;;;;;;7.10;3.90;;;;;;;;;;5109996;28;20081;-64
2021/04/15 14:31:24;;;;;;;9.80;4.28;;;;;;;;;;5110192;28;20016;-64
2021/04/15 14:33:50;;;;;;;19.02;11.65;;;;;;;;;;5109727;28;20519;-66
2021/04/15 14:36:22;;;;;;;16.55;10.23;;;;;;;;;;5110016;28;20472;-66
2021/04/15 14:38:49;;;;;;;9.70;5.72;;;;;;;;;;5109974;28;20032;-66
2021/04/15 14:41:24;;;;;;;9.77;5.43;;;;;;;;;;5108102;28;20156;-66
2021/04/15 14:43:50;;;;;;;7.72;4.40;;;;;;;;;;5108493;28;20023;-66
2021/04/15 14:46:37;;;;;;;12.20;7.43;;;;;;;;;;5110394;27;20426;-64
2021/04/15 14:49:20;;;;;;;8.27;5.25;;;;;;;;;;5110108;28;20057;-64
2021/04/15 14:51:47;;;;;;;8.05;4.13;;;;;;;;;;5110606;28;20016;-64
2021/04/15 14:54:21;;;;;;;8.63;3.97;;;;;;;;;;5109927;28;20028;-64
2021/04/15 14:56:48;;;;;;;7.95;4.32;;;;;;;;;;5110310;28;20111;-63
2021/04/15 14:59:27;;;;;;;7.25;4.18;;;;;;;;;;5110285;28;20095;-65
2021/04/15 15:01:54;;;;;;;9.38;3.28;;;;;;;;;;5109819;28;20027;-65
2021/04/15 15:04:20;;;;;;;10.15;5.90;;;;;;;;;;5110049;28;20048;-65
2021/04/15 15:06:47;;;;;;;9.40;5.35;;;;;;;;;;5110047;28;20024;-65
2021/04/15 15:09:18;;;;;;;11.38;5.72;;;;;;;;;;5109714;28;20077;-64
2021/04/15 15:11:45;;;;;;;8.75;5.15;;;;;;;;;;5108952;28;20365;-64
2021/04/15 15:14:12;;;;;;;10.20;5.93;;;;;;;;;;5109986;28;20035;-64
2021/04/15 15:16:40;;;;;;;14.50;9.13;;;;;;;;;;5109413;28;20476;-65
2021/04/15 15:20:40;;;;;;;14.35;8.73;;;;;;;;;;5110371;27;20422;-64
2021/04/15 15:23:12;;;;;;;11.90;7.00;;;;;;;;;;5109982;28;20396;-63
2021/04/15 15:25:43;;;;;;;15.13;7.78;;;;;;;;;;5110287;28;20472;-63
2021/04/15 15:30:29;;;;;;;9.50;6.05;;;;;;;;;;5089878;28;20375;-64
2021/04/15 15:36:27;;;;;;;11.77;5.65;;;;;;;;;;5110229;27;20783;-65
2021/04/15 15:41:23;;;;;;;15.50;9.15;;;;;;;;;;5110359;27;20436;-66
2021/04/15 15:45:19;;;;;;;11.10;5.80;;;;;;;;;;5069491;28;20729;-67
2021/04/15 15:47:46;;;;;;;12.00;7.53;;;;;;;;;;5068621;28;20370;-64
2021/04/15 15:50:53;;;;;;;11.75;7.55;;;;;;;;;;5110016;27;20940;-66
2021/04/15 15:55:05;;;;;;;13.05;8.35;;;;;;;;;;5110578;27;20430;-66
2021/04/15 15:59:56;;;;;;;13.23;8.02;;;;;;;;;;5130855;27;20524;-65
2021/04/15 16:02:25;;;;;;;14.50;7.78;;;;;;;;;;5092199;28;20024;-64
2021/04/15 16:06:18;;;;;;;15.65;9.30;;;;;;;;;;5109925;27;20380;-64
2021/04/15 16:08:44;;;;;;;19.92;10.15;;;;;;;;;;5109047;28;20400;-63
2021/04/15 16:11:34;;;;;;;17.13;8.32;;;;;;;;;;5110356;28;20077;-64
2021/04/15 16:16:27;;;;;;;14.32;7.28;;;;;;;;;;5110298;27;20384;-66
2021/04/15 16:19:15;;;;;;;16.23;6.25;;;;;;;;;;5069435;28;20421;-66
2021/04/15 16:21:42;;;;;;;17.50;8.48;;;;;;;;;;5069704;28;20032;-66
2021/04/15 16:24:17;;;;;;;20.73;10.88;;;;;;;;;;5069661;28;20039;-65
2021/04/15 16:30:30;;;;;;;21.02;11.35;;;;;;;;;;5110368;27;20306;-66